Time;durP1;ratioP1;P1;durP2;ratioP2;P2;SDS_P1;SDS_P2;PMS_P1;PMS_P2;Temp;Humidity;BMP_temperature;BMP_pressure;BME280_temperature;BME280_humidity;BME280_pressure;Samples;Min_cycle;Max_cycle;Signal;HPM_P1;HPM_P2
2022/10/09 00:00:25;;;;;;;;;40.60;33.00;;;;;19.89;64.30;99294.16;6202069;27;98510;-71
2022/10/09 00:03:30;;;;;;;;;41.00;35.50;;;;;19.81;64.22;99294.69;6136886;28;96285;-73
2022/10/09 00:06:35;;;;;;;;;40.80;33.40;;;;;19.80;64.60;99293.06;6196771;28;98352;-73
2022/10/09 00:09:38;;;;;;;;;41.40;34.00;;;;;19.71;65.00;99298.25;6202543;27;96890;-73
2022/10/09 00:12:41;;;;;;;;;41.00;33.00;;;;;19.68;64.69;99290.59;6136639;28;96298;-73
2022/10/09 00:15:46;;;;;;;;;40.00;33.00;;;;;19.56;65.31;99278.25;6123368;28;96385;-74
2022/10/09 00:18:52;;;;;;;;;40.60;33.60;;;;;19.50;64.56;99271.94;6136666;28;96322;-73
2022/10/09 00:21:55;;;;;;;;;34.25;31.00;;;;;19.54;63.22;99286.75;6131685;28;97068;-73
2022/10/09 00:24:58;;;;;;;;;34.00;31.00;;;;;19.58;63.39;99301.50;6128835;28;96818;-73
2022/10/09 00:28:03;;;;;;;;;37.20;31.20;;;;;19.43;62.64;99283.13;6136785;28;96307;-73
2022/10/09 00:31:07;;;;;;;;;36.20;31.20;;;;;19.52;62.81;99296.28;6219895;27;96851;-73
2022/10/09 00:34:12;;;;;;;;;32.00;30.00;;;;;19.63;62.61;99309.72;6203524;28;96679;-73
2022/10/09 00:37:15;;;;;;;;;33.25;31.25;;;;;19.63;62.00;99311.63;6142351;27;96426;-73
2022/10/09 00:40:19;;;;;;;;;28.00;28.00;;;;;19.50;61.27;99323.91;6136594;28;96347;-73
2022/10/09 00:43:40;;;;;;;;;31.00;28.00;;;;;19.49;60.69;99324.19;6136455;28;96289;-70
2022/10/09 00:46:48;;;;;;;;;32.80;30.00;;;;;19.56;60.95;99332.94;6136837;28;97037;-74
2022/10/09 00:49:56;;;;;;;;;28.00;25.80;;;;;19.55;60.94;99328.59;6136372;28;96300;-72
2022/10/09 00:53:02;;;;;;;;;22.20;20.20;;;;;19.46;58.75;99312.69;6201612;27;97162;-71
2022/10/09 00:56:06;;;;;;;;;21.00;18.00;;;;;19.54;57.72;99333.22;6134277;28;97058;-74
2022/10/09 00:59:10;;;;;;;;;21.00;18.00;;;;;19.54;56.88;99335.16;6183564;28;96580;-71
2022/10/09 01:02:14;;;;;;;;;17.00;16.80;;;;;19.51;56.43;99335.66;6200454;28;96934;-72
2022/10/09 01:05:19;;;;;;;;;16.40;14.40;;;;;19.50;55.02;99343.03;6205662;27;97212;-72
2022/10/09 01:08:28;;;;;;;;;13.00;12.00;;;;;19.47;51.51;99349.06;6219115;27;96899;-72
2022/10/09 01:11:41;;;;;;;;;12.00;11.00;;;;;19.42;50.62;99341.63;6203020;28;96415;-71
2022/10/09 01:14:51;;;;;;;;;11.00;10.00;;;;;19.40;49.39;99352.00;6203368;28;96948;-72
2022/10/09 01:18:04;;;;;;;;;8.50;8.00;;;;;19.41;48.89;99347.34;6184246;28;97075;-71
2022/10/09 01:21:14;;;;;;;;;6.60;6.60;;;;;19.38;49.01;99354.19;6219444;27;96357;-72
2022/10/09 01:24:29;;;;;;;;;11.50;10.00;;;;;19.35;48.33;99356.66;6128515;28;96337;-72
2022/10/09 01:27:37;;;;;;;;;8.00;8.00;;;;;19.29;47.63;99350.34;6136972;28;96845;-73
2022/10/09 01:30:40;;;;;;;;;7.50;7.00;;;;;19.29;47.83;99349.50;6219202;27;96875;-72
2022/10/09 01:33:45;;;;;;;;;7.40;6.00;;;;;19.22;47.88;99357.13;6200588;28;96650;-72
2022/10/09 01:36:51;;;;;;;;;6.00;6.00;;;;;19.13;48.09;99347.78;6133934;28;96495;-73
2022/10/09 01:39:54;;;;;;;;;8.00;8.00;;;;;19.04;48.37;99374.81;6136760;28;96584;-72
2022/10/09 01:42:59;;;;;;;;;7.60;6.60;;;;;19.00;48.80;99379.16;6136213;28;96440;-72
2022/10/09 01:46:20;;;;;;;;;6.60;6.60;;;;;18.96;49.26;99386.25;6219495;27;96299;-73
2022/10/09 01:49:40;;;;;;;;;9.00;8.00;;;;;18.95;49.13;99382.69;6132874;28;96556;-72
2022/10/09 01:52:48;;;;;;;;;6.00;5.50;;;;;18.93;49.64;99381.28;6202145;27;96224;-73
2022/10/09 01:55:59;;;;;;;;;9.20;9.00;;;;;18.86;49.39;99388.91;6176541;28;96652;-73
2022/10/09 01:59:09;;;;;;;;;6.20;5.80;;;;;18.85;49.88;99401.75;6198824;28;98252;-73
2022/10/09 02:02:19;;;;;;;;;6.00;6.00;;;;;18.79;49.55;99400.06;6202624;27;96350;-73
2022/10/09 02:05:27;;;;;;;;;6.00;6.00;;;;;18.68;49.69;99394.78;6116444;28;96861;-72
2022/10/09 02:08:33;;;;;;;;;7.00;7.00;;;;;18.76;50.03;99407.97;6218826;27;96863;-73
2022/10/09 02:11:39;;;;;;;;;6.00;6.00;;;;;18.72;50.12;99413.09;6201527;28;96821;-70
2022/10/09 02:14:43;;;;;;;;;7.00;7.00;;;;;18.64;50.03;99413.59;6218397;27;96193;-71
2022/10/09 02:17:51;;;;;;;;;7.00;7.00;;;;;18.64;50.32;99416.34;6200584;27;96418;-72
2022/10/09 02:20:59;;;;;;;;;8.00;7.60;;;;;18.75;50.30;99419.97;6201559;28;96963;-72
2022/10/09 02:24:06;;;;;;;;;7.40;7.00;;;;;18.71;50.20;99425.16;6204396;27;96329;-72
2022/10/09 02:27:12;;;;;;;;;5.80;5.00;;;;;18.54;50.32;99419.81;6207061;28;96707;-71
2022/10/09 02:30:18;;;;;;;;;5.80;5.00;;;;;18.55;50.53;99424.19;6140232;28;98282;-72
2022/10/09 02:33:27;;;;;;;;;7.00;7.00;;;;;18.54;50.94;99425.28;6206543;28;98560;-72
2022/10/09 02:36:31;;;;;;;;;7.00;7.00;;;;;18.25;51.10;99393.03;6138439;28;96621;-72
2022/10/09 02:39:35;;;;;;;;;6.00;6.00;;;;;18.32;51.40;99442.78;6137185;28;97582;-69
2022/10/09 02:42:38;;;;;;;;;6.00;6.00;;;;;18.24;52.00;99440.50;6195977;28;96820;-70
2022/10/09 02:45:44;;;;;;;;;7.00;7.00;;;;;18.26;52.02;99439.19;6188018;28;97039;-71
2022/10/09 02:48:47;;;;;;;;;6.20;6.00;;;;;18.25;52.08;99439.44;6204576;28;96666;-71
2022/10/09 02:51:50;;;;;;;;;7.00;7.00;;;;;18.24;52.09;99445.97;6203144;27;96870;-73
2022/10/09 02:54:54;;;;;;;;;6.75;5.75;;;;;18.17;52.45;99448.91;6203860;28;96462;-71
2022/10/09 02:57:57;;;;;;;;;7.60;7.60;;;;;18.09;52.97;99460.28;6136891;28;96275;-72
2022/10/09 03:01:02;;;;;;;;;7.75;7.00;;;;;18.06;53.39;99466.25;6189286;28;96491;-71
2022/10/09 03:04:05;;;;;;;;;9.00;8.00;;;;;17.98;53.75;99470.28;6135873;28;97637;-71
2022/10/09 03:07:09;;;;;;;;;6.50;6.50;;;;;17.92;54.10;99473.19;6205439;28;98385;-71
2022/10/09 03:10:12;;;;;;;;;8.00;7.40;;;;;17.79;54.75;99471.66;6137999;28;96775;-71
2022/10/09 03:13:15;;;;;;;;;7.00;6.00;;;;;17.82;54.68;99483.97;6211346;27;98480;-72
2022/10/09 03:16:22;;;;;;;;;7.20;7.00;;;;;17.73;55.05;99473.53;6220974;27;96301;-73
2022/10/09 03:19:26;;;;;;;;;7.40;7.00;;;;;17.73;55.08;99472.69;6205951;28;96250;-72
2022/10/09 03:22:29;;;;;;;;;5.00;5.00;;;;;17.64;55.51;99469.56;6184643;28;96971;-71
2022/10/09 03:25:32;;;;;;;;;7.80;7.00;;;;;17.65;55.60;99482.13;6137003;28;96234;-72
2022/10/09 03:28:36;;;;;;;;;5.25;5.25;;;;;17.60;55.71;99482.06;6137056;28;97323;-72
2022/10/09 03:31:41;;;;;;;;;7.40;6.00;;;;;17.58;55.95;99488.84;6205161;28;96984;-73
2022/10/09 03:35:00;;;;;;;;;8.00;8.00;;;;;17.48;55.62;99470.44;6138604;28;96288;-72
2022/10/09 03:38:04;;;;;;;;;5.75;5.75;;;;;17.56;56.01;99477.34;6137397;28;96875;-72
2022/10/09 03:41:08;;;;;;;;;9.00;8.50;;;;;17.46;56.18;99483.47;6138160;28;96277;-71
2022/10/09 03:44:11;;;;;;;;;9.00;9.00;;;;;17.30;56.37;99487.88;6144073;27;96437;-73
2022/10/09 03:47:16;;;;;;;;;7.00;7.00;;;;;17.30;56.25;99492.50;6198400;27;99138;-72
2022/10/09 03:50:19;;;;;;;;;8.00;8.00;;;;;17.19;56.42;99496.19;6139410;28;96832;-72
2022/10/09 03:53:22;;;;;;;;;6.50;6.50;;;;;17.11;56.55;99500.13;6136340;28;96349;-71
2022/10/09 03:56:26;;;;;;;;;7.60;7.00;;;;;17.04;56.63;99501.41;6137950;28;96745;-72
2022/10/09 03:59:29;;;;;;;;;9.25;8.25;;;;;16.89;56.63;99507.44;6205240;28;98414;-72
2022/10/09 04:02:34;;;;;;;;;9.75;9.00;;;;;16.76;56.98;99507.75;6138356;28;96272;-73
2022/10/09 04:05:38;;;;;;;;;8.60;7.80;;;;;16.65;57.22;99517.66;6221833;27;96375;-72
2022/10/09 04:08:42;;;;;;;;;9.50;9.00;;;;;16.60;57.05;99522.16;6210504;27;98373;-72
2022/10/09 04:11:45;;;;;;;;;8.00;7.40;;;;;16.60;56.81;99517.56;6138057;28;96296;-72
2022/10/09 04:14:48;;;;;;;;;9.33;8.33;;;;;16.53;57.10;99527.72;6220360;27;96505;-73
2022/10/09 04:17:53;;;;;;;;;7.00;7.00;;;;;16.50;57.14;99530.13;6178971;28;98509;-71
2022/10/09 04:20:57;;;;;;;;;8.25;8.00;;;;;16.37;57.62;99532.06;6141058;27;96322;-73
2022/10/09 04:24:02;;;;;;;;;7.00;7.00;;;;;16.38;57.63;99538.34;6220004;27;96872;-73
2022/10/09 04:27:05;;;;;;;;;8.25;8.00;;;;;16.39;57.68;99535.38;6137053;27;96425;-73
2022/10/09 04:30:10;;;;;;;;;10.00;8.60;;;;;16.36;57.71;99537.75;6203357;28;96497;-72
2022/10/09 04:33:14;;;;;;;;;9.60;8.00;;;;;16.31;57.82;99543.94;6135232;28;96972;-73
2022/10/09 04:36:18;;;;;;;;;9.00;8.00;;;;;16.24;57.97;99551.41;6204120;28;96540;-73
2022/10/09 04:39:21;;;;;;;;;7.00;6.00;;;;;16.20;58.13;99552.13;6236389;28;98431;-72
2022/10/09 04:42:25;;;;;;;;;8.00;8.00;;;;;16.14;58.46;99553.94;6239359;28;96436;-72
2022/10/09 04:45:28;;;;;;;;;8.00;7.40;;;;;16.07;58.56;99557.88;6234562;28;96415;-71
2022/10/09 04:48:37;;;;;;;;;7.40;7.40;;;;;16.02;58.40;99569.47;6233834;28;97106;-73
2022/10/09 04:51:41;;;;;;;;;7.80;7.00;;;;;15.97;58.73;99569.34;6238272;27;96269;-72
2022/10/09 04:54:45;;;;;;;;;8.00;7.60;;;;;15.90;59.05;99577.63;6236173;27;96564;-71
2022/10/09 04:57:48;;;;;;;;;7.00;7.00;;;;;15.90;58.88;99588.53;6232847;28;96543;-70
2022/10/09 05:00:51;;;;;;;;;8.00;7.60;;;;;15.86;58.86;99587.34;6233021;28;96870;-71
2022/10/09 05:03:56;;;;;;;;;6.00;5.00;;;;;15.82;59.07;99590.78;6234921;28;96487;-68
2022/10/09 05:07:00;;;;;;;;;7.00;7.00;;;;;15.78;59.08;99598.59;6236311;27;96352;-71
2022/10/09 05:10:04;;;;;;;;;6.00;6.00;;;;;15.73;59.20;99593.03;6235906;27;96427;-71
2022/10/09 05:13:08;;;;;;;;;6.00;6.00;;;;;15.79;59.12;99596.69;6232265;27;98728;-71
2022/10/09 05:16:14;;;;;;;;;6.67;6.00;;;;;15.75;58.92;99582.75;6234489;28;97025;-72
2022/10/09 05:19:18;;;;;;;;;5.80;5.80;;;;;15.94;58.79;99597.84;6235303;28;97262;-72
2022/10/09 05:22:22;;;;;;;;;7.00;7.00;;;;;16.03;58.34;99598.28;6237476;27;96753;-74
2022/10/09 05:25:25;;;;;;;;;8.00;7.80;;;;;16.10;58.20;99603.63;6236815;28;96247;-73
2022/10/09 05:28:28;;;;;;;;;8.50;8.50;;;;;16.08;57.94;99609.28;6237805;28;96680;-71
2022/10/09 05:31:32;;;;;;;;;9.00;8.00;;;;;16.10;57.82;99611.78;6237492;28;97475;-72
2022/10/09 05:34:37;;;;;;;;;6.00;6.00;;;;;16.10;57.74;99617.22;6237551;27;96247;-73
2022/10/09 05:37:40;;;;;;;;;10.00;10.00;;;;;16.16;57.47;99624.41;6221548;28;96700;-72
2022/10/09 05:40:50;;;;;;;;;8.00;7.60;;;;;16.14;57.36;99629.25;6218807;27;96194;-73
2022/10/09 05:43:54;;;;;;;;;7.00;7.00;;;;;16.12;57.66;99636.84;6136584;28;98084;-73
2022/10/09 05:46:58;;;;;;;;;7.00;7.00;;;;;16.08;57.35;99641.91;6135573;28;96215;-73
2022/10/09 05:50:02;;;;;;;;;6.80;6.80;;;;;16.09;57.19;99645.47;6138293;28;96450;-72
2022/10/09 05:53:06;;;;;;;;;6.00;6.00;;;;;16.13;57.13;99650.19;6216149;27;96951;-72
2022/10/09 05:56:11;;;;;;;;;5.20;5.00;;;;;16.30;56.76;99659.28;6200741;28;96510;-72
2022/10/09 05:59:18;;;;;;;;;8.60;8.00;;;;;16.43;56.36;99653.56;6216271;27;96795;-73
2022/10/09 06:02:22;;;;;;;;;7.00;7.00;;;;;16.74;55.40;99671.38;6201637;28;97271;-72
2022/10/09 06:05:26;;;;;;;;;6.00;6.00;;;;;16.99;54.54;99670.22;6218611;27;96893;-72
2022/10/09 06:08:32;;;;;;;;;9.00;8.00;;;;;17.24;53.58;99670.66;6183389;28;97351;-71
2022/10/09 06:11:37;;;;;;;;;6.00;6.00;;;;;17.56;53.37;99662.75;6216194;27;96285;-71
2022/10/09 06:14:40;;;;;;;;;8.00;8.00;;;;;18.06;51.01;99679.94;6134203;28;96750;-72
2022/10/09 06:17:43;;;;;;;;;9.40;9.00;;;;;18.67;49.62;99683.47;6134603;28;96264;-73
2022/10/09 06:20:55;;;;;;;;;8.60;8.60;;;;;19.37;47.95;99682.56;6216406;28;98358;-71
2022/10/09 06:24:00;;;;;;;;;8.00;8.00;;;;;20.07;45.46;99693.28;6151740;28;96510;-71
2022/10/09 06:27:03;;;;;;;;;5.00;5.00;;;;;20.92;42.91;99688.50;6134785;28;96250;-72
2022/10/09 06:30:08;;;;;;;;;9.00;7.00;;;;;21.87;41.11;99704.28;6193008;28;98758;-72
2022/10/09 06:33:11;;;;;;;;;23.80;23.60;;;;;22.61;39.24;99702.78;6130971;27;96737;-70
2022/10/09 06:36:18;;;;;;;;;15.60;15.00;;;;;23.30;36.85;99698.03;6183547;28;96850;-72
2022/10/09 06:39:22;;;;;;;;;20.00;19.50;;;;;24.16;35.29;99713.91;6138127;28;96897;-72
2022/10/09 06:42:25;;;;;;;;;6.40;6.40;;;;;25.24;33.80;99719.78;6216206;27;96228;-71
2022/10/09 06:45:37;;;;;;;;;6.60;6.60;;;;;25.73;32.03;99714.63;6172535;28;96904;-72
2022/10/09 06:48:41;;;;;;;;;8.00;7.20;;;;;25.59;33.90;99719.28;6132853;28;96921;-71
2022/10/09 06:51:45;;;;;;;;;6.40;6.00;;;;;24.82;33.07;99737.97;6132699;28;96883;-72
2022/10/09 06:54:49;;;;;;;;;6.00;5.60;;;;;23.87;34.18;99731.50;6199179;28;96524;-70
2022/10/09 06:57:52;;;;;;;;;6.00;6.00;;;;;23.19;35.84;99729.47;6178988;28;96442;-71
2022/10/09 07:01:03;;;;;;;;;7.00;7.00;;;;;22.34;37.05;99739.66;6216577;27;96508;-72
2022/10/09 07:04:10;;;;;;;;;8.20;8.00;;;;;21.81;38.48;99742.97;6136774;27;96514;-73
2022/10/09 07:07:15;;;;;;;;;9.00;9.00;;;;;21.24;39.29;99730.31;6200577;28;97014;-73
2022/10/09 07:10:18;;;;;;;;;10.00;9.67;;;;;20.70;40.58;99721.59;6133835;28;97127;-68
2022/10/09 07:13:29;;;;;;;;;8.00;8.00;;;;;20.53;41.25;99743.69;6200532;27;97616;-73
2022/10/09 07:16:34;;;;;;;;;9.00;8.00;;;;;20.02;42.57;99750.75;6138480;28;96233;-72
2022/10/09 07:19:38;;;;;;;;;10.00;10.00;;;;;19.84;43.31;99742.94;6137950;28;96523;-72
2022/10/09 07:22:43;;;;;;;;;9.80;9.00;;;;;19.69;43.79;99740.06;6135863;28;97568;-72
2022/10/09 07:25:46;;;;;;;;;10.00;10.00;;;;;19.59;44.18;99746.28;6134611;28;96901;-72
2022/10/09 07:28:50;;;;;;;;;10.00;9.75;;;;;19.55;44.75;99753.31;6143928;27;96569;-72
2022/10/09 07:31:53;;;;;;;;;11.25;10.00;;;;;19.34;45.13;99763.22;6136151;28;96259;-73
2022/10/09 07:34:56;;;;;;;;;10.60;10.00;;;;;19.26;45.40;99766.41;6135302;28;97585;-72
2022/10/09 07:38:01;;;;;;;;;9.00;8.50;;;;;18.91;45.65;99763.28;6134474;28;96597;-70
2022/10/09 07:41:06;;;;;;;;;12.00;10.50;;;;;18.92;45.92;99759.44;6138335;28;96349;-72
2022/10/09 07:44:10;;;;;;;;;11.00;10.00;;;;;19.26;45.23;99765.56;6137295;27;96255;-71
2022/10/09 07:47:14;;;;;;;;;11.00;9.60;;;;;20.23;42.99;99762.66;6194784;28;98384;-71
2022/10/09 07:50:17;;;;;;;;;10.75;10.00;;;;;20.24;42.53;99764.28;6215537;27;96339;-72
2022/10/09 07:53:22;;;;;;;;;12.60;10.20;;;;;21.01;41.44;99769.16;6202839;27;98369;-72
2022/10/09 07:56:28;;;;;;;;;11.20;10.00;;;;;24.65;34.81;99767.13;6135678;28;97755;-71
2022/10/09 07:59:31;;;;;;;;;9.00;8.40;;;;;27.76;29.97;99766.75;6134826;28;96451;-72
2022/10/09 08:02:34;;;;;;;;;9.00;8.50;;;;;29.18;26.74;99769.34;6220828;27;96331;-72
2022/10/09 08:05:38;;;;;;;;;7.00;7.00;;;;;30.02;25.46;99779.25;6136950;27;96553;-70
2022/10/09 08:08:43;;;;;;;;;6.20;6.20;;;;;30.39;25.16;99778.56;6201488;27;96846;-72
2022/10/09 08:11:46;;;;;;;;;7.40;7.00;;;;;31.03;24.36;99788.84;6135715;28;96349;-70
2022/10/09 08:14:50;;;;;;;;;8.80;7.80;;;;;32.28;22.92;99786.94;6195716;27;96727;-71
2022/10/09 08:17:53;;;;;;;;;8.00;7.00;;;;;33.07;21.62;99780.94;6135105;28;96356;-70
2022/10/09 08:20:58;;;;;;;;;5.00;5.00;;;;;31.46;23.09;99783.81;6134161;28;97132;-72
2022/10/09 08:24:03;;;;;;;;;7.00;7.00;;;;;29.46;25.22;99796.91;6139349;28;96464;-70
2022/10/09 08:27:07;;;;;;;;;7.00;6.00;;;;;27.96;27.21;99793.97;6132169;28;97955;-73
2022/10/09 08:30:10;;;;;;;;;8.00;7.00;;;;;27.95;27.46;99795.09;6201109;28;98737;-69
2022/10/09 08:33:14;;;;;;;;;6.00;6.00;;;;;27.61;26.98;99803.16;6204429;28;96359;-71
2022/10/09 08:36:18;;;;;;;;;7.00;6.00;;;;;27.13;26.99;99800.00;6130047;28;97462;-72
2022/10/09 08:39:22;;;;;;;;;5.60;5.00;;;;;27.36;27.20;99796.19;6146435;28;96244;-72
2022/10/09 08:42:32;;;;;;;;;8.00;8.00;;;;;29.93;24.64;99797.91;6130950;28;96664;-70
2022/10/09 08:45:40;;;;;;;;;6.75;6.00;;;;;32.49;21.15;99805.28;6209406;27;97242;-74
2022/10/09 08:48:45;;;;;;;;;6.50;6.50;;;;;33.79;20.14;99808.00;6213556;27;96786;-74
2022/10/09 08:51:50;;;;;;;;;5.60;5.00;;;;;34.02;19.45;99813.88;6217184;27;96415;-72
2022/10/09 08:54:59;;;;;;;;;6.20;6.00;;;;;33.08;20.47;99802.94;6220070;27;96474;-73
2022/10/09 08:58:05;;;;;;;;;7.00;7.00;;;;;34.28;19.45;99814.28;6136870;27;96193;-73
2022/10/09 09:01:20;;;;;;;;;6.00;5.60;;;;;35.79;18.21;99812.91;6202936;28;98746;-74
2022/10/09 09:04:47;;;;;;;;;5.00;5.00;;;;;37.37;16.36;99809.91;6203893;28;96390;-73
2022/10/09 09:08:05;;;;;;;;;5.00;5.00;;;;;38.36;15.75;99816.91;6136929;28;96202;-73
2022/10/09 09:11:21;;;;;;;;;4.60;4.60;;;;;37.93;15.42;99805.09;6136837;28;96392;-72
2022/10/09 09:14:37;;;;;;;;;4.00;4.00;;;;;37.90;15.56;99813.50;6136325;28;96117;-73
2022/10/09 09:17:50;;;;;;;;;6.00;6.00;;;;;36.81;16.74;99807.75;6136657;28;96173;-72
2022/10/09 09:20:55;;;;;;;;;4.00;4.00;;;;;37.21;16.29;99807.25;6220360;27;96287;-73
2022/10/09 09:24:02;;;;;;;;;5.00;5.00;;;;;36.62;16.44;99805.00;6142829;27;96336;-74
2022/10/09 09:27:13;;;;;;;;;4.00;4.00;;;;;36.90;16.52;99800.69;6203761;27;96710;-74
2022/10/09 09:30:20;;;;;;;;;5.00;5.00;;;;;37.49;15.03;99802.03;6220170;27;96219;-73
2022/10/09 09:33:31;;;;;;;;;4.00;4.00;;;;;38.61;15.09;99805.94;6203053;28;96659;-73
2022/10/09 09:36:44;;;;;;;;;3.80;3.80;;;;;37.93;14.36;99805.09;6173504;28;97380;-73
2022/10/09 09:39:48;;;;;;;;;5.00;5.00;;;;;38.32;13.73;99805.59;6202757;28;97456;-73
2022/10/09 09:43:17;;;;;;;;;5.00;4.00;;;;;39.20;13.57;99804.84;6135295;28;96603;-73
2022/10/09 09:46:26;;;;;;;;;3.00;3.00;;;;;40.05;13.19;99802.56;6191583;28;96561;-73
2022/10/09 09:49:29;;;;;;;;;3.00;3.00;;;;;40.70;12.50;99801.59;6136831;28;96299;-73
2022/10/09 09:52:37;;;;;;;;;4.00;3.00;;;;;40.14;13.19;99803.00;6136012;28;96326;-73
2022/10/09 09:55:41;;;;;;;;;4.60;3.60;;;;;39.35;13.80;99806.59;6136016;28;96553;-73
2022/10/09 09:58:48;;;;;;;;;4.40;4.40;;;;;39.22;12.77;99806.09;6135798;28;97000;-73
2022/10/09 10:02:00;;;;;;;;;4.00;3.60;;;;;39.10;13.21;99799.97;6202215;28;96546;-72
2022/10/09 10:05:16;;;;;;;;;4.00;4.00;;;;;39.39;13.76;99802.59;6198029;28;96410;-74
2022/10/09 10:08:26;;;;;;;;;6.00;4.60;;;;;39.37;13.76;99805.00;6136249;28;96290;-72
2022/10/09 10:11:31;;;;;;;;;6.50;6.00;;;;;37.09;14.58;99796.22;6201751;28;98500;-75
2022/10/09 10:14:36;;;;;;;;;7.00;6.00;;;;;35.64;15.51;99792.13;6201552;28;96323;-74
2022/10/09 10:17:39;;;;;;;;;7.00;7.00;;;;;33.99;17.18;99795.00;6135762;28;96316;-74
2022/10/09 10:20:46;;;;;;;;;8.50;8.00;;;;;32.59;18.35;99759.34;6199799;28;98184;-71
2022/10/09 10:23:54;;;;;;;;;7.00;6.50;;;;;32.91;18.84;99775.22;6201810;28;96740;-73
2022/10/09 10:27:01;;;;;;;;;7.20;7.00;;;;;33.99;18.07;99783.81;6134724;28;96570;-74
2022/10/09 10:30:13;;;;;;;;;6.20;5.80;;;;;33.16;17.23;99780.84;6135345;28;96250;-74
2022/10/09 10:33:21;;;;;;;;;5.00;5.00;;;;;32.01;18.21;99771.59;6191202;28;96697;-72
2022/10/09 10:36:27;;;;;;;;;5.00;5.00;;;;;30.84;19.41;99778.06;6134219;28;97072;-73
2022/10/09 10:39:38;;;;;;;;;5.00;4.80;;;;;29.77;20.38;99788.41;6127658;28;96814;-69
2022/10/09 10:42:50;;;;;;;;;5.00;5.00;;;;;29.15;21.08;99783.06;6197013;28;96685;-73
2022/10/09 10:46:10;;;;;;;;;7.00;6.00;;;;;29.10;21.72;99778.47;6134789;27;96564;-71
2022/10/09 10:49:19;;;;;;;;;6.00;6.00;;;;;28.94;21.74;99773.69;6135654;28;96462;-73
2022/10/09 10:52:41;;;;;;;;;6.00;5.00;;;;;28.35;21.81;99782.19;6205299;27;96515;-69
2022/10/09 10:55:53;;;;;;;;;7.00;7.00;;;;;27.55;23.16;99760.88;6136744;28;96558;-72
2022/10/09 10:59:06;;;;;;;;;8.00;8.00;;;;;26.96;24.45;99778.50;6136316;28;96943;-70
2022/10/09 11:02:37;;;;;;;;;8.25;7.00;;;;;26.21;25.78;99778.78;6135891;28;96583;-72
2022/10/09 11:05:50;;;;;;;;;6.00;6.00;;;;;26.33;24.98;99780.25;6135576;28;97038;-73
2022/10/09 11:09:04;;;;;;;;;8.00;6.50;;;;;27.96;23.15;99770.97;6204101;28;96676;-73
2022/10/09 11:12:21;;;;;;;;;6.40;6.00;;;;;30.09;21.57;99780.41;6137484;27;96478;-72
2022/10/09 11:15:55;;;;;;;;;5.80;4.80;;;;;32.17;17.77;99767.03;6136449;28;96434;-73
2022/10/09 11:19:16;;;;;;;;;5.40;5.00;;;;;33.80;16.91;99780.84;6138021;28;96240;-74
2022/10/09 11:22:34;;;;;;;;;5.00;5.00;;;;;35.19;16.05;99769.44;6221384;27;96832;-74
2022/10/09 11:25:48;;;;;;;;;5.00;5.00;;;;;34.74;15.41;99767.13;6137914;28;96223;-74
2022/10/09 11:28:58;;;;;;;;;6.00;5.00;;;;;33.30;16.06;99767.31;6138070;28;96315;-73
2022/10/09 11:32:12;;;;;;;;;5.00;4.80;;;;;32.34;17.47;99760.47;6137224;28;96898;-73
2022/10/09 11:35:21;;;;;;;;;6.00;6.00;;;;;32.91;17.45;99758.47;6141114;28;97075;-73
2022/10/09 11:38:28;;;;;;;;;5.50;4.00;;;;;34.05;16.49;99767.59;6133785;28;97026;-73
2022/10/09 11:41:35;;;;;;;;;5.75;5.00;;;;;34.83;15.55;99755.72;6217818;27;96253;-73
2022/10/09 11:44:47;;;;;;;;;4.50;4.50;;;;;33.99;15.68;99763.41;6135685;28;96415;-72
2022/10/09 11:48:03;;;;;;;;;5.20;5.00;;;;;32.60;16.65;99760.94;6137399;27;96250;-73
2022/10/09 11:51:14;;;;;;;;;6.00;6.00;;;;;31.40;17.93;99768.44;6182028;28;98103;-73
2022/10/09 11:54:21;;;;;;;;;4.40;4.00;;;;;30.82;18.56;99756.16;6198902;27;98364;-73
2022/10/09 11:57:29;;;;;;;;;5.00;4.40;;;;;31.44;18.29;99752.69;6230644;27;96472;-72
2022/10/09 12:00:35;;;;;;;;;5.00;5.00;;;;;32.40;18.04;99751.50;6201387;28;97425;-72
2022/10/09 12:03:40;;;;;;;;;5.00;5.00;;;;;33.31;17.19;99747.41;6201517;28;96763;-72
2022/10/09 12:06:50;;;;;;;;;5.00;4.25;;;;;33.79;15.74;99749.28;6202459;28;99085;-72
2022/10/09 12:09:59;;;;;;;;;3.00;3.00;;;;;33.99;15.74;99752.22;6178328;28;96648;-72
2022/10/09 12:13:06;;;;;;;;;3.20;3.00;;;;;33.71;16.21;99744.66;6136193;28;96990;-73
2022/10/09 12:16:28;;;;;;;;;2.00;2.00;;;;;33.07;16.12;99741.81;6137613;28;96307;-74
2022/10/09 12:19:38;;;;;;;;;3.50;3.50;;;;;31.99;17.03;99718.13;6136748;28;96277;-74
2022/10/09 12:22:46;;;;;;;;;4.50;4.50;;;;;30.90;18.49;99732.19;6136953;28;96720;-73
2022/10/09 12:26:12;;;;;;;;;3.00;3.00;;;;;29.80;19.36;99732.16;6221008;27;96966;-74
2022/10/09 12:29:24;;;;;;;;;4.00;3.00;;;;;29.40;20.26;99732.31;6137175;28;96305;-74
2022/10/09 12:32:32;;;;;;;;;4.00;4.00;;;;;29.61;20.58;99724.16;6199897;28;96722;-74
2022/10/09 12:35:37;;;;;;;;;3.00;3.00;;;;;29.81;20.16;99728.25;6203369;28;98373;-74
2022/10/09 12:38:43;;;;;;;;;5.00;5.00;;;;;29.95;20.15;99715.81;6196756;27;97105;-70
2022/10/09 12:41:49;;;;;;;;;4.40;4.00;;;;;29.97;19.42;99701.56;6137768;27;96403;-74
2022/10/09 12:44:55;;;;;;;;;3.00;3.00;;;;;30.27;19.54;99719.97;6135540;28;96793;-74
2022/10/09 12:48:00;;;;;;;;;3.00;3.00;;;;;30.26;19.45;99717.53;6137336;28;96313;-74
2022/10/09 12:51:14;;;;;;;;;5.00;5.00;;;;;30.25;19.87;99719.50;6203242;28;99264;-74
2022/10/09 12:54:19;;;;;;;;;3.00;3.00;;;;;30.29;19.91;99719.66;6189702;28;96113;-74
2022/10/09 12:57:23;;;;;;;;;2.50;2.50;;;;;30.27;20.48;99724.72;6220365;27;96423;-75
2022/10/09 13:00:31;;;;;;;;;4.00;4.00;;;;;30.26;19.17;99709.19;6118651;28;96902;-73
2022/10/09 13:03:38;;;;;;;;;4.00;4.00;;;;;30.39;19.17;99722.91;6133982;28;96505;-75
2022/10/09 13:06:46;;;;;;;;;4.00;3.00;;;;;30.45;19.07;99717.94;6218474;27;96567;-73
2022/10/09 13:10:02;;;;;;;;;3.00;3.00;;;;;30.18;18.97;99719.19;6130110;28;96281;-75
2022/10/09 13:13:06;;;;;;;;;3.00;3.00;;;;;29.96;20.23;99724.97;6218928;27;96224;-75
2022/10/09 13:16:10;;;;;;;;;2.00;2.00;;;;;29.91;20.16;99722.38;6200717;27;96961;-74
2022/10/09 13:19:23;;;;;;;;;3.00;3.00;;;;;29.83;20.53;99721.19;6136280;28;96493;-73
2022/10/09 13:22:28;;;;;;;;;4.00;3.60;;;;;29.81;20.30;99720.69;6202758;27;96298;-73
2022/10/09 13:25:41;;;;;;;;;4.00;3.00;;;;;29.75;20.53;99724.81;6175267;27;96396;-72
2022/10/09 13:28:44;;;;;;;;;4.00;3.00;;;;;29.66;19.80;99721.22;6184909;28;96736;-73
2022/10/09 13:31:47;;;;;;;;;2.00;2.00;;;;;29.56;20.11;99716.00;6136533;28;96214;-74
2022/10/09 13:34:54;;;;;;;;;7.75;7.00;;;;;29.46;19.57;99716.31;6136927;28;96990;-73
2022/10/09 13:37:57;;;;;;;;;2.20;2.20;;;;;29.19;19.97;99720.16;6160068;27;99820;-73
2022/10/09 13:41:02;;;;;;;;;3.00;3.00;;;;;28.46;20.48;99705.09;6201987;27;96632;-73
2022/10/09 13:44:05;;;;;;;;;6.25;6.25;;;;;27.84;21.31;99716.13;6202503;28;96348;-73
2022/10/09 13:47:11;;;;;;;;;3.00;2.00;;;;;27.09;21.95;99721.47;6136565;28;96275;-72
2022/10/09 13:50:16;;;;;;;;;2.20;2.00;;;;;26.39;22.75;99715.44;6136862;27;96111;-72
2022/10/09 13:53:19;;;;;;;;;3.00;3.00;;;;;25.79;23.24;99712.59;6136255;28;96780;-72
2022/10/09 13:56:25;;;;;;;;;3.00;3.00;;;;;25.23;24.51;99715.38;6202304;27;96493;-72
2022/10/09 13:59:30;;;;;;;;;3.00;3.00;;;;;24.72;24.95;99710.53;6202456;28;96794;-72
2022/10/09 14:02:33;;;;;;;;;4.00;3.00;;;;;24.40;25.44;99718.59;6217019;27;96653;-73
2022/10/09 14:05:36;;;;;;;;;3.00;3.00;;;;;24.56;25.71;99706.28;6210563;27;98647;-72
2022/10/09 14:08:40;;;;;;;;;3.80;3.80;;;;;24.73;25.16;99706.63;6134505;28;96657;-72
2022/10/09 14:11:44;;;;;;;;;2.00;2.00;;;;;24.93;25.10;99705.56;6199390;28;96719;-73
2022/10/09 14:14:48;;;;;;;;;3.20;3.20;;;;;25.11;24.37;99704.78;6186359;27;96699;-71
2022/10/09 14:17:51;;;;;;;;;6.40;6.40;;;;;25.17;24.62;99703.59;6134529;28;96267;-71
2022/10/09 14:20:55;;;;;;;;;9.40;9.40;;;;;25.24;24.57;99704.03;6216746;27;96562;-69
2022/10/09 14:24:01;;;;;;;;;9.00;8.00;;;;;25.30;24.84;99704.78;6133917;28;96395;-72
2022/10/09 14:27:06;;;;;;;;;6.25;6.00;;;;;25.22;24.85;99686.13;6218021;27;96597;-72
2022/10/09 14:30:10;;;;;;;;;4.00;4.00;;;;;25.42;24.94;99697.69;6131802;28;96599;-69
2022/10/09 14:33:14;;;;;;;;;6.00;5.00;;;;;25.48;24.66;99694.84;6133403;28;97142;-73
2022/10/09 14:36:19;;;;;;;;;3.20;3.20;;;;;25.37;24.58;99695.00;6186046;28;96070;-72